Time;durP1;ratioP1;P1;durP2;ratioP2;P2;SDS_P1;SDS_P2;PMS_P1;PMS_P2;Temp;Humidity;BMP_temperature;BMP_pressure;BME280_temperature;BME280_humidity;BME280_pressure;Samples;Min_cycle;Max_cycle;Signal;HPM_P1;HPM_P2
2021/05/01 00:00:14;;;;;;;23.70;18.57;;;;;;;6.28;64.77;98630.28;2257766;78;21165;-79
2021/05/01 00:03:17;;;;;;;26.63;19.27;;;;;;;6.24;64.80;98626.73;2258213;78;21083;-80
2021/05/01 00:06:18;;;;;;;22.97;18.37;;;;;;;6.16;64.96;98612.70;2259682;78;21067;-78
2021/05/01 00:09:19;;;;;;;26.20;18.53;;;;;;;6.09;65.07;98610.80;2259733;78;21357;-78
2021/05/01 00:12:20;;;;;;;25.83;19.33;;;;;;;6.04;65.25;98618.83;2259744;78;21101;-78
2021/05/01 00:15:21;;;;;;;25.43;19.37;;;;;;;6.04;65.45;98617.54;2259931;78;21102;-78
2021/05/01 00:18:23;;;;;;;378.40;44.77;;;;;;;6.01;65.45;98616.16;2259870;78;21209;-77
2021/05/01 00:21:24;;;;;;;118.60;33.73;;;;;;;5.96;65.85;98616.05;2260745;78;21150;-81
2021/05/01 00:24:25;;;;;;;22.80;18.83;;;;;;;5.98;66.06;98607.02;2260584;78;21099;-79
2021/05/01 00:27:26;;;;;;;28.40;21.33;;;;;;;5.99;65.72;98598.41;2260450;78;21117;-80
2021/05/01 00:30:27;;;;;;;195.50;84.17;;;;;;;5.97;65.85;98593.61;2260596;78;21138;-79
2021/05/01 00:33:28;;;;;;;42.67;23.97;;;;;;;6.01;66.11;98585.95;2260448;78;21103;-79
2021/05/01 00:36:29;;;;;;;19.70;17.07;;;;;;;6.01;65.76;98591.55;2260244;78;21102;-80
2021/05/01 00:39:30;;;;;;;54.27;17.97;;;;;;;5.93;65.34;98591.35;2260930;78;21106;-81
2021/05/01 00:42:31;;;;;;;18.80;16.87;;;;;;;5.86;65.67;98597.17;2261573;78;21122;-79
2021/05/01 00:45:32;;;;;;;21.37;16.57;;;;;;;5.80;65.53;98591.84;2261714;78;21090;-80
2021/05/01 00:48:33;;;;;;;20.53;16.90;;;;;;;5.79;66.11;98600.86;2262058;78;21110;-79
2021/05/01 00:51:34;;;;;;;19.93;17.13;;;;;;;5.70;65.88;98598.48;2261744;78;21107;-80
2021/05/01 00:54:35;;;;;;;26.50;19.43;;;;;;;5.62;65.87;98608.17;2261603;78;21071;-80
2021/05/01 00:57:36;;;;;;;47.10;27.27;;;;;;;5.61;66.60;98602.12;2260633;78;21106;-79
2021/05/01 01:00:51;;;;;;;137.53;46.40;;;;;;;5.72;67.86;98608.88;2270041;78;21145;-80
2021/05/01 01:03:47;;;;;;;55.53;25.93;;;;;;;5.73;66.95;98604.16;2279864;78;21090;-80
2021/05/01 01:06:48;;;;;;;39.03;25.10;;;;;;;5.63;66.87;98610.80;2280696;77;21133;-80
2021/05/01 01:09:49;;;;;;;43.07;24.87;;;;;;;5.56;66.97;98608.00;2280546;77;21058;-81
2021/05/01 01:12:50;;;;;;;40.47;25.07;;;;;;;5.52;66.97;98614.81;2265091;77;21098;-81
2021/05/01 01:15:51;;;;;;;34.37;26.73;;;;;;;5.53;67.02;98611.38;2262022;78;21103;-80
2021/05/01 01:18:52;;;;;;;109.80;43.93;;;;;;;5.51;66.97;98613.47;2261975;78;21098;-80
2021/05/01 01:21:53;;;;;;;90.90;39.80;;;;;;;5.50;67.26;98607.83;2262096;78;21146;-80
2021/05/01 01:24:54;;;;;;;47.70;30.30;;;;;;;5.42;67.09;98616.68;2261800;78;21205;-81
2021/05/01 01:27:55;;;;;;;36.23;26.00;;;;;;;5.34;67.13;98609.11;2261823;78;21097;-80
2021/05/01 01:30:57;;;;;;;54.23;29.80;;;;;;;5.31;67.45;98607.31;2261718;78;21091;-81
2021/05/01 01:33:58;;;;;;;88.90;38.27;;;;;;;5.31;67.69;98615.50;2261981;78;21095;-81
2021/05/01 01:36:59;;;;;;;60.23;29.77;;;;;;;5.29;67.33;98617.16;2261844;78;21134;-80
2021/05/01 01:40:00;;;;;;;31.80;22.30;;;;;;;5.21;67.28;98619.53;2261878;78;21185;-81
2021/05/01 01:43:02;;;;;;;27.40;20.77;;;;;;;5.17;67.35;98622.83;2261963;78;21240;-81
2021/05/01 01:46:03;;;;;;;24.57;20.10;;;;;;;5.10;67.26;98619.59;2261905;78;21126;-80
2021/05/01 01:49:04;;;;;;;138.97;53.70;;;;;;;5.01;67.35;98621.91;2261938;78;21796;-81
2021/05/01 01:52:05;;;;;;;175.33;58.33;;;;;;;5.00;67.59;98621.03;2261935;78;21102;-80
2021/05/01 01:55:06;;;;;;;71.87;34.03;;;;;;;5.06;67.92;98613.45;2261717;78;21395;-80
2021/05/01 01:58:07;;;;;;;36.87;28.90;;;;;;;5.10;67.83;98610.12;2261588;78;21102;-79
2021/05/01 02:01:10;;;;;;;42.93;29.27;;;;;;;5.13;68.31;98612.80;2263602;78;21161;-80
2021/05/01 02:04:11;;;;;;;77.77;35.87;;;;;;;5.19;68.53;98622.88;2265112;78;21098;-81
2021/05/01 02:07:12;;;;;;;47.50;27.67;;;;;;;5.18;68.33;98618.11;2264782;78;21130;-80
2021/05/01 02:10:13;;;;;;;35.83;24.07;;;;;;;5.21;68.50;98616.06;2265022;78;21070;-80
2021/05/01 02:13:14;;;;;;;30.50;23.10;;;;;;;5.23;68.15;98627.34;2265460;78;21095;-80
2021/05/01 02:16:15;;;;;;;40.47;31.00;;;;;;;5.26;67.66;98618.37;2264850;78;21099;-80
2021/05/01 02:19:16;;;;;;;36.87;30.53;;;;;;;5.22;67.83;98612.23;2265199;78;21232;-80
2021/05/01 02:22:17;;;;;;;36.00;28.13;;;;;;;5.20;68.01;98616.86;2265238;78;21135;-81
2021/05/01 02:25:18;;;;;;;75.77;31.00;;;;;;;5.22;68.23;98617.81;2265025;78;21342;-81
2021/05/01 02:28:19;;;;;;;49.80;31.83;;;;;;;5.26;68.11;98623.55;2264997;78;21071;-81
2021/05/01 02:31:20;;;;;;;36.67;30.37;;;;;;;5.29;68.09;98622.34;2264997;79;21515;-81
2021/05/01 02:34:21;;;;;;;31.87;27.63;;;;;;;5.29;67.77;98615.87;2265061;78;21098;-80
2021/05/01 02:37:23;;;;;;;34.50;30.10;;;;;;;5.32;68.02;98616.84;2264970;78;21134;-79
2021/05/01 02:40:24;;;;;;;33.67;27.67;;;;;;;5.32;67.97;98601.30;2265093;78;21150;-80
2021/05/01 02:43:25;;;;;;;32.17;26.83;;;;;;;5.31;67.35;98605.14;2265183;78;21228;-80
2021/05/01 02:46:26;;;;;;;33.30;27.33;;;;;;;5.20;67.71;98588.40;2264845;78;21098;-80
2021/05/01 02:49:27;;;;;;;246.43;93.50;;;;;;;5.09;67.67;98575.16;2264933;78;21404;-80
2021/05/01 02:52:28;;;;;;;170.97;62.10;;;;;;;5.08;67.99;98570.39;2264877;78;21110;-81
2021/05/01 02:55:29;;;;;;;41.17;25.20;;;;;;;5.13;68.11;98567.94;2264954;78;21109;-81
2021/05/01 02:58:30;;;;;;;27.47;22.37;;;;;;;5.07;68.05;98570.35;2265093;78;21074;-81
2021/05/01 03:01:31;;;;;;;26.53;22.70;;;;;;;5.03;68.10;98564.62;2262665;78;21166;-80
2021/05/01 03:04:32;;;;;;;30.03;22.50;;;;;;;4.98;67.89;98561.03;2260686;78;21109;-80
2021/05/01 03:07:33;;;;;;;30.77;24.73;;;;;;;4.88;67.86;98556.42;2260921;78;21424;-80
2021/05/01 03:10:34;;;;;;;29.93;23.43;;;;;;;4.83;68.18;98557.58;2260912;78;21097;-81
2021/05/01 03:13:35;;;;;;;24.10;21.50;;;;;;;4.82;67.81;98561.41;2260828;78;21067;-80
2021/05/01 03:16:36;;;;;;;28.00;22.07;;;;;;;4.79;67.91;98571.25;2260712;78;21220;-81
2021/05/01 03:19:37;;;;;;;25.93;20.53;;;;;;;4.72;67.68;98570.19;2260705;78;21115;-81
2021/05/01 03:22:38;;;;;;;25.07;20.17;;;;;;;4.62;67.17;98568.16;2261181;78;21415;-81
2021/05/01 03:25:40;;;;;;;26.23;20.73;;;;;;;4.61;68.00;98575.86;2261043;78;21108;-81
2021/05/01 03:28:41;;;;;;;28.07;20.33;;;;;;;4.56;67.69;98575.72;2260755;78;21107;-81
2021/05/01 03:31:42;;;;;;;25.70;21.03;;;;;;;4.54;67.77;98568.33;2260722;78;21130;-81
2021/05/01 03:34:43;;;;;;;26.30;20.03;;;;;;;4.60;67.80;98574.10;2260883;78;21094;-81
2021/05/01 03:37:44;;;;;;;27.63;19.57;;;;;;;4.57;67.75;98569.72;2261231;78;21142;-80
2021/05/01 03:40:45;;;;;;;28.27;20.30;;;;;;;4.54;67.76;98563.58;2260857;79;21146;-81
2021/05/01 03:43:46;;;;;;;279.17;114.17;;;;;;;4.57;67.97;98563.67;2260988;78;21125;-81
2021/05/01 03:46:47;;;;;;;37.00;23.07;;;;;;;4.68;67.98;98557.12;2260762;78;21379;-81
2021/05/01 03:49:48;;;;;;;131.37;53.57;;;;;;;4.72;67.85;98550.80;2261162;78;21090;-81
2021/05/01 03:52:49;;;;;;;36.50;22.20;;;;;;;4.83;67.96;98560.16;2261162;78;21118;-80
2021/05/01 03:55:50;;;;;;;25.33;18.90;;;;;;;4.92;67.77;98555.68;2261263;78;21106;-80
2021/05/01 03:58:51;;;;;;;23.97;18.43;;;;;;;4.97;67.55;98561.86;2261087;78;21110;-81
2021/05/01 04:01:52;;;;;;;25.63;19.43;;;;;;;5.00;67.61;98555.07;2252494;78;21277;-81
2021/05/01 04:04:53;;;;;;;25.00;19.63;;;;;;;5.15;67.89;98560.22;2247603;79;21087;-80
2021/05/01 04:07:55;;;;;;;20.37;17.57;;;;;;;5.31;67.91;98572.38;2247565;79;21138;-81
2021/05/01 04:10:57;;;;;;;21.50;18.17;;;;;;;5.48;67.48;98570.67;2247614;79;21095;-83
2021/05/01 04:13:58;;;;;;;149.30;32.20;;;;;;;5.59;67.61;98560.19;2247345;79;21094;-81
2021/05/01 04:16:59;;;;;;;283.37;97.17;;;;;;;5.76;68.11;98561.51;2247207;79;21221;-80
2021/05/01 04:20:00;;;;;;;280.33;99.30;;;;;;;5.94;67.96;98565.03;2247651;79;21135;-80
2021/05/01 04:23:01;;;;;;;125.87;49.50;;;;;;;6.13;67.99;98563.39;2247989;79;21103;-83
2021/05/01 04:26:02;;;;;;;85.43;38.03;;;;;;;6.29;67.79;98566.81;2248329;79;21071;-79
2021/05/01 04:29:03;;;;;;;71.97;34.67;;;;;;;6.49;67.76;98566.41;2247612;79;21119;-80
2021/05/01 04:32:04;;;;;;;40.10;26.50;;;;;;;6.68;67.91;98566.86;2247276;79;21119;-80
2021/05/01 04:35:05;;;;;;;48.87;27.20;;;;;;;6.84;67.46;98572.39;2247082;79;21110;-80
2021/05/01 04:38:06;;;;;;;72.93;36.03;;;;;;;6.96;66.92;98568.80;2247270;79;21099;-81
2021/05/01 04:41:07;;;;;;;47.13;30.80;;;;;;;7.06;66.57;98573.77;2247143;79;21151;-80
2021/05/01 04:44:09;;;;;;;41.93;32.33;;;;;;;7.11;66.63;98574.31;2247333;79;21075;-80
2021/05/01 04:47:10;;;;;;;45.23;36.97;;;;;;;7.18;66.60;98571.43;2247137;79;21119;-81
2021/05/01 04:50:11;;;;;;;45.87;34.80;;;;;;;12.09;71.55;98559.31;2247073;79;21095;-79
2021/05/01 04:53:12;;;;;;;45.50;30.13;;;;;;;12.09;71.55;98559.31;2247282;79;21111;-80
2021/05/01 04:56:16;;;;;;;34.18;23.07;;;;;;;14.29;65.57;98556.98;2247306;79;21218;-81
2021/05/01 04:59:17;;;;;;;45.00;26.50;;;;;;;15.45;58.86;98552.39;2247135;79;21365;-80
2021/05/01 05:02:19;;;;;;;34.90;24.53;;;;;;;15.92;53.62;98548.75;2247332;79;21522;-81
2021/05/01 05:05:20;;;;;;;50.83;25.35;;;;;;;16.13;50.75;98550.20;2247587;79;21098;-81
2021/05/01 05:08:21;;;;;;;42.75;23.85;;;;;;;14.97;49.02;98553.37;2247554;79;21091;-81
2021/05/01 05:11:22;;;;;;;26.35;20.30;;;;;;;13.51;50.11;98557.00;2248035;79;21197;-81
2021/05/01 05:14:23;;;;;;;26.05;21.07;;;;;;;12.36;50.96;98567.66;2248072;79;21102;-80
2021/05/01 05:17:24;;;;;;;26.93;21.77;;;;;;;11.53;52.42;98570.05;2248152;79;21071;-80
2021/05/01 05:20:25;;;;;;;27.87;22.87;;;;;;;10.88;53.65;98570.13;2247430;79;21424;-82
2021/05/01 05:23:26;;;;;;;30.13;24.77;;;;;;;10.48;54.89;98564.64;2247311;79;21114;-81
2021/05/01 05:26:27;;;;;;;27.33;22.30;;;;;;;10.10;55.92;98560.34;2247540;79;21071;-78
2021/05/01 05:29:28;;;;;;;26.43;23.40;;;;;;;9.85;56.68;98564.88;2248015;79;21138;-79
2021/05/01 05:32:29;;;;;;;27.40;23.33;;;;;;;9.67;57.46;98546.44;2247897;79;21095;-80
2021/05/01 05:35:30;;;;;;;24.70;22.20;;;;;;;9.45;58.34;98550.08;2247806;79;21225;-79
2021/05/01 05:38:31;;;;;;;26.83;23.90;;;;;;;9.33;59.08;98552.53;2248238;79;21142;-80
2021/05/01 05:41:33;;;;;;;34.27;30.77;;;;;;;9.10;59.57;98556.16;2248172;79;21138;-80
2021/05/01 05:44:34;;;;;;;28.83;25.70;;;;;;;8.99;60.02;98556.87;2247948;79;21111;-81
2021/05/01 05:47:35;;;;;;;27.43;23.60;;;;;;;8.91;60.44;98556.77;2247740;79;21111;-80
2021/05/01 05:50:36;;;;;;;22.53;19.77;;;;;;;8.84;60.73;98566.22;2248237;79;21102;-80
2021/05/01 05:53:37;;;;;;;23.10;20.53;;;;;;;8.80;61.20;98569.63;2248066;79;21095;-80
2021/05/01 05:56:38;;;;;;;23.00;20.03;;;;;;;8.76;61.36;98561.75;2247294;79;21244;-82
2021/05/01 05:59:39;;;;;;;35.63;21.53;;;;;;;8.63;61.63;98559.37;2248071;79;21107;-79
2021/05/01 06:02:40;;;;;;;34.27;20.60;;;;;;;8.53;62.32;98553.16;2247562;78;21550;-80
2021/05/01 06:05:41;;;;;;;35.77;21.77;;;;;;;8.48;62.42;98565.22;2247885;79;21110;-80
2021/05/01 06:08:42;;;;;;;42.13;24.77;;;;;;;8.50;62.67;98554.83;2247934;79;21134;-79
2021/05/01 06:11:43;;;;;;;31.53;22.33;;;;;;;8.67;62.68;98552.09;2248093;79;21123;-79
2021/05/01 06:14:44;;;;;;;27.63;22.03;;;;;;;8.86;62.91;98545.41;2247833;79;21110;-80
2021/05/01 06:17:46;;;;;;;28.07;20.93;;;;;;;9.09;62.98;98534.00;2247615;79;21067;-81
2021/05/01 06:20:47;;;;;;;28.23;19.10;;;;;;;9.36;63.30;98536.07;2247551;79;21155;-80
2021/05/01 06:23:48;;;;;;;32.00;21.13;;;;;;;10.70;63.92;98523.90;2247416;79;21114;-80
2021/05/01 06:26:49;;;;;;;24.27;17.60;;;;;;;10.98;60.56;98518.83;2247277;79;21090;-81
2021/05/01 06:29:50;;;;;;;21.73;18.23;;;;;;;10.82;59.69;98520.05;2247500;79;21123;-79
2021/05/01 06:32:52;;;;;;;24.43;18.63;;;;;;;10.71;59.22;98526.95;2247481;79;21095;-80
2021/05/01 06:35:53;;;;;;;18.97;16.90;;;;;;;10.46;59.50;98528.52;2247274;79;21103;-81
2021/05/01 06:38:59;;;;;;;20.07;17.83;;;;;;;10.18;59.89;98535.20;2247719;79;21249;-79
2021/05/01 06:41:59;;;;;;;22.00;18.13;;;;;;;10.05;60.05;98537.69;2247392;79;21158;-79
2021/05/01 06:45:00;;;;;;;29.67;21.60;;;;;;;9.93;60.05;98532.36;2247742;79;21130;-79
2021/05/01 06:48:01;;;;;;;25.73;20.90;;;;;;;9.85;60.43;98537.50;2247916;79;21103;-79
2021/05/01 06:51:02;;;;;;;25.30;19.33;;;;;;;9.78;60.98;98533.95;2247903;79;21233;-80
2021/05/01 06:54:03;;;;;;;28.47;23.70;;;;;;;9.75;61.32;98548.69;2247510;79;21107;-80
2021/05/01 06:57:04;;;;;;;25.70;20.87;;;;;;;9.71;62.22;98545.18;2247397;79;21111;-79
2021/05/01 07:00:06;;;;;;;23.93;20.57;;;;;;;9.70;62.41;98536.05;2247891;79;21138;-80
2021/05/01 07:03:07;;;;;;;26.27;21.37;;;;;;;9.79;62.81;98536.14;2273508;78;21252;-80
2021/05/01 07:06:08;;;;;;;24.13;20.70;;;;;;;10.02;62.80;98542.44;2278035;78;21233;-80
2021/05/01 07:09:09;;;;;;;22.13;19.83;;;;;;;10.14;62.61;98549.07;2262042;78;21114;-80
2021/05/01 07:12:10;;;;;;;27.17;19.57;;;;;;;10.20;62.65;98554.80;2262019;78;21095;-78
2021/05/01 07:15:11;;;;;;;21.77;19.37;;;;;;;10.19;62.46;98551.72;2261489;78;21126;-80
2021/05/01 07:18:14;;;;;;;23.90;20.67;;;;;;;10.31;62.44;98542.73;2262011;78;21114;-80
2021/05/01 07:21:15;;;;;;;52.57;40.30;;;;;;;10.60;61.75;98536.45;2262031;79;21260;-80
2021/05/01 07:24:16;;;;;;;22.80;20.30;;;;;;;10.98;61.32;98537.98;2261871;78;21098;-79
2021/05/01 07:27:17;;;;;;;23.10;20.70;;;;;;;11.37;60.46;98535.14;2262235;78;21117;-79
2021/05/01 07:30:18;;;;;;;23.17;20.20;;;;;;;11.36;59.51;98529.47;2262225;78;21106;-81
2021/05/01 07:33:19;;;;;;;25.93;20.20;;;;;;;11.28;59.66;98525.95;2262138;78;21099;-79
2021/05/01 07:36:20;;;;;;;36.70;25.43;;;;;;;11.34;59.94;98531.20;2262017;78;21106;-80
2021/05/01 07:39:21;;;;;;;25.55;20.52;;;;;;;11.41;60.12;98532.55;2262007;78;21107;-79
2021/05/01 07:42:25;;;;;;;33.23;23.22;;;;;;;11.34;59.20;98536.44;2262485;78;21142;-80
2021/05/01 07:45:26;;;;;;;25.08;21.15;;;;;;;11.32;60.10;98533.81;2262311;78;21082;-79
2021/05/01 07:48:28;;;;;;;25.60;20.60;;;;;;;11.27;59.41;98532.02;2261911;78;21122;-79
2021/05/01 07:51:29;;;;;;;24.47;19.97;;;;;;;11.26;59.93;98523.74;2262092;78;21399;-79
2021/05/01 07:54:33;;;;;;;25.87;21.43;;;;;;;11.37;59.47;98525.56;2262163;78;21102;-80
2021/05/01 07:57:34;;;;;;;24.53;20.10;;;;;;;11.54;59.25;98531.28;2261130;78;21079;-78
2021/05/01 08:00:35;;;;;;;23.80;21.10;;;;;;;11.71;59.01;98541.34;2260784;78;21400;-78
2021/05/01 08:03:36;;;;;;;23.25;20.80;;;;;;;11.88;58.26;98539.67;2263967;78;21141;-77
2021/05/01 08:06:37;;;;;;;24.60;20.75;;;;;;;12.12;58.39;98541.44;2264229;78;21103;-78
2021/05/01 08:09:38;;;;;;;27.42;22.25;;;;;;;12.43;57.73;98544.97;2264637;78;21121;-78
2021/05/01 08:12:39;;;;;;;26.23;23.35;;;;;;;12.44;56.42;98559.80;2265850;78;21106;-78
2021/05/01 08:15:40;;;;;;;26.33;22.50;;;;;;;12.19;57.19;98565.91;2265320;79;21341;-79
2021/05/01 08:18:42;;;;;;;28.12;22.00;;;;;;;12.06;56.97;98564.98;2265410;78;21396;-78
2021/05/01 08:21:43;;;;;;;27.90;23.40;;;;;;;11.97;57.73;98561.91;2265319;78;21162;-79
2021/05/01 08:24:44;;;;;;;27.13;22.05;;;;;;;11.99;57.78;98558.87;2265774;78;21205;-78
2021/05/01 08:27:45;;;;;;;25.43;21.97;;;;;;;12.01;57.38;98557.12;2265274;78;21204;-79
2021/05/01 08:30:46;;;;;;;26.85;22.30;;;;;;;12.15;57.45;98557.61;2265742;78;21392;-79
2021/05/01 08:33:47;;;;;;;27.32;21.68;;;;;;;12.26;56.59;98566.34;2265417;78;21404;-78
2021/05/01 08:36:48;;;;;;;23.47;20.80;;;;;;;12.31;56.55;98564.16;2264931;78;21074;-77
2021/05/01 08:39:49;;;;;;;25.25;21.85;;;;;;;12.39;56.32;98548.03;2264199;78;21098;-78
2021/05/01 08:42:50;;;;;;;23.07;20.70;;;;;;;12.47;55.82;98541.91;2264440;78;21125;-78
2021/05/01 08:45:53;;;;;;;23.95;20.57;;;;;;;12.66;55.53;98539.28;2265024;78;21106;-78
2021/05/01 08:48:57;;;;;;;23.67;21.15;;;;;;;12.78;55.34;98533.58;2265161;78;21086;-78
2021/05/01 08:51:58;;;;;;;24.65;22.13;;;;;;;12.88;54.87;98528.32;2264416;78;21392;-78
2021/05/01 08:54:59;;;;;;;23.32;20.95;;;;;;;13.05;54.59;98523.06;2264812;78;21106;-79
2021/05/01 08:58:00;;;;;;;24.43;20.92;;;;;;;13.08;55.00;98532.23;2265034;78;21133;-77
2021/05/01 09:01:01;;;;;;;24.05;20.60;;;;;;;12.97;55.05;98544.02;2265048;78;21122;-78
2021/05/01 09:04:05;;;;;;;23.45;21.05;;;;;;;12.87;55.06;98535.75;2267669;78;21134;-78
2021/05/01 09:07:06;;;;;;;24.07;20.48;;;;;;;12.72;55.30;98533.16;2268002;78;21388;-78
2021/05/01 09:10:07;;;;;;;24.18;21.68;;;;;;;12.64;55.73;98540.16;2261217;78;21107;-78
2021/05/01 09:13:09;;;;;;;22.80;19.87;;;;;;;12.57;55.55;98547.58;2260219;78;21142;-78
2021/05/01 09:16:11;;;;;;;27.52;20.95;;;;;;;12.45;55.80;98545.84;2260178;78;21086;-78
2021/05/01 09:19:12;;;;;;;24.30;21.77;;;;;;;12.37;56.23;98554.13;2260595;78;21098;-79
2021/05/01 09:22:13;;;;;;;24.77;22.17;;;;;;;12.30;56.60;98561.11;2260669;78;21139;-79
2021/05/01 09:25:14;;;;;;;25.85;21.80;;;;;;;12.26;56.36;98561.98;2260434;78;21387;-78
2021/05/01 09:28:16;;;;;;;26.73;22.95;;;;;;;12.25;56.62;98553.70;2260439;79;21107;-78
2021/05/01 09:31:18;;;;;;;29.67;25.32;;;;;;;12.30;56.56;98555.88;2260219;78;21495;-78
2021/05/01 09:34:19;;;;;;;28.57;24.00;;;;;;;12.37;56.46;98553.70;2260622;78;21098;-79
2021/05/01 09:37:20;;;;;;;25.17;22.48;;;;;;;12.47;56.60;98542.78;2260445;78;21194;-78
2021/05/01 09:40:21;;;;;;;25.48;21.35;;;;;;;12.57;56.25;98548.45;2260137;78;21161;-77
2021/05/01 09:43:22;;;;;;;27.30;22.80;;;;;;;12.73;55.94;98551.92;2260051;78;21106;-78
2021/05/01 09:46:23;;;;;;;25.02;22.52;;;;;;;12.84;56.13;98546.23;2259799;78;21381;-78
2021/05/01 09:49:24;;;;;;;28.87;24.95;;;;;;;13.01;55.23;98556.70;2260276;78;21110;-77
2021/05/01 09:52:26;;;;;;;29.70;24.32;;;;;;;13.11;55.47;98546.63;2260340;79;21344;-78
2021/05/01 09:55:27;;;;;;;31.15;21.30;;;;;;;13.32;54.72;98540.48;2260799;78;21102;-79
2021/05/01 09:58:28;;;;;;;26.45;20.92;;;;;;;13.48;54.24;98545.22;2260507;78;21217;-78
2021/05/01 10:01:29;;;;;;;23.55;21.05;;;;;;;13.50;53.88;98544.77;2260115;78;21150;-80
2021/05/01 10:04:30;;;;;;;23.87;21.37;;;;;;;13.47;54.11;98540.84;2279033;78;21352;-78
2021/05/01 10:07:31;;;;;;;28.25;20.68;;;;;;;13.84;53.43;98536.27;2262156;78;21114;-78
2021/05/01 10:10:32;;;;;;;22.52;20.10;;;;;;;14.16;52.61;98522.53;2261483;78;21114;-78
2021/05/01 10:13:33;;;;;;;25.43;21.77;;;;;;;14.23;52.30;98520.73;2261414;79;21102;-79
2021/05/01 10:16:34;;;;;;;28.25;23.55;;;;;;;14.66;51.95;98514.68;2261692;78;21087;-78
2021/05/01 10:19:35;;;;;;;22.22;19.23;;;;;;;15.00;50.36;98512.61;2261480;79;21098;-80
2021/05/01 10:22:37;;;;;;;23.87;21.42;;;;;;;15.18;50.43;98513.71;2261949;79;21271;-78
2021/05/01 10:25:38;;;;;;;97.45;80.07;;;;;;;15.33;49.40;98510.47;2261666;78;21387;-78
2021/05/01 10:28:39;;;;;;;25.20;21.80;;;;;;;15.37;48.92;98504.28;2261907;78;21127;-78
2021/05/01 10:31:40;;;;;;;22.77;20.25;;;;;;;15.26;47.62;98503.97;2261611;78;21105;-79
2021/05/01 10:34:41;;;;;;;21.82;19.70;;;;;;;15.14;48.20;98502.80;2261814;78;21075;-78
2021/05/01 10:37:42;;;;;;;26.77;23.38;;;;;;;15.00;48.19;98490.27;2261640;78;21209;-79
2021/05/01 10:40:43;;;;;;;29.50;24.40;;;;;;;14.84;48.73;98496.58;2261851;78;21371;-78
2021/05/01 10:43:44;;;;;;;27.22;22.93;;;;;;;14.64;49.04;98501.56;2261528;79;21106;-79
2021/05/01 10:46:45;;;;;;;28.20;25.10;;;;;;;14.37;48.99;98505.73;2261677;78;21236;-78
2021/05/01 10:49:48;;;;;;;40.58;29.52;;;;;;;14.11;49.32;98499.38;2261263;78;21107;-78
2021/05/01 10:52:49;;;;;;;36.28;27.77;;;;;;;14.02;50.16;98500.77;2261566;78;21102;-79
2021/05/01 10:55:50;;;;;;;58.40;35.68;;;;;;;14.05;50.18;98503.36;2261503;78;21118;-79
2021/05/01 10:58:51;;;;;;;40.05;33.13;;;;;;;14.18;50.34;98500.20;2261403;78;21099;-78
2021/05/01 11:01:52;;;;;;;39.67;30.92;;;;;;;14.29;49.52;98499.67;2260819;78;21561;-78
2021/05/01 11:04:54;;;;;;;24.35;21.25;;;;;;;14.38;50.23;98498.72;2260170;78;21098;-78
2021/05/01 11:07:55;;;;;;;37.03;27.67;;;;;;;14.40;49.97;98494.33;2260238;78;21107;-78
2021/05/01 11:10:56;;;;;;;25.60;21.68;;;;;;;14.49;49.73;98487.27;2260120;78;21115;-78
2021/05/01 11:13:57;;;;;;;25.70;22.95;;;;;;;14.55;49.61;98477.14;2260520;78;21127;-78
2021/05/01 11:16:58;;;;;;;30.65;26.02;;;;;;;14.45;49.90;98480.30;2260458;78;21092;-78
2021/05/01 11:19:59;;;;;;;33.50;27.98;;;;;;;14.44;49.91;98494.31;2260319;78;21221;-78
2021/05/01 11:23:00;;;;;;;34.15;28.38;;;;;;;14.46;49.74;98495.17;2260591;78;21107;-78
2021/05/01 11:26:01;;;;;;;30.12;26.93;;;;;;;14.35;50.05;98500.49;2260744;78;21317;-77
2021/05/01 11:29:02;;;;;;;33.02;27.13;;;;;;;14.43;50.28;98497.83;2260081;78;21102;-79
2021/05/01 11:32:03;;;;;;;31.50;26.77;;;;;;;14.66;49.85;98499.80;2260540;78;21113;-78
2021/05/01 11:35:04;;;;;;;32.00;28.57;;;;;;;14.92;49.50;98498.68;2260277;78;21104;-79
2021/05/01 11:38:05;;;;;;;27.90;24.82;;;;;;;15.02;49.26;98500.31;2260290;78;21123;-78
2021/05/01 11:41:07;;;;;;;36.98;30.80;;;;;;;15.01;49.57;98497.70;2260486;78;21527;-78
2021/05/01 11:44:08;;;;;;;30.92;27.30;;;;;;;14.97;49.60;98492.93;2260759;79;21130;-80
2021/05/01 11:47:09;;;;;;;34.10;29.40;;;;;;;15.06;49.51;98480.12;2260651;78;21217;-78
2021/05/01 11:50:10;;;;;;;38.83;31.87;;;;;;;15.19;49.38;98476.45;2260642;78;21137;-78
2021/05/01 11:53:11;;;;;;;31.50;24.15;;;;;;;15.42;48.57;98484.05;2260618;78;21079;-77
2021/05/01 11:56:12;;;;;;;31.68;28.27;;;;;;;15.71;51.17;98495.11;2260582;78;21125;-79
2021/05/01 11:59:13;;;;;;;35.38;30.65;;;;;;;16.04;47.58;98488.91;2260412;79;21204;-79
2021/05/01 12:02:14;;;;;;;33.45;27.45;;;;;;;16.18;47.45;98486.93;2259207;79;21285;-78
2021/05/01 12:05:15;;;;;;;31.95;27.45;;;;;;;16.32;46.93;98476.17;2246950;79;21098;-78
2021/05/01 12:08:17;;;;;;;29.60;26.68;;;;;;;16.70;46.94;98477.73;2247308;79;21127;-79
2021/05/01 12:11:18;;;;;;;30.32;27.07;;;;;;;16.93;45.76;98486.53;2247137;79;21099;-79
2021/05/01 12:14:19;;;;;;;28.57;25.55;;;;;;;16.56;45.59;98495.08;2246553;79;21389;-80
2021/05/01 12:17:20;;;;;;;29.82;26.52;;;;;;;16.30;46.53;98498.58;2247027;79;21123;-79
2021/05/01 12:20:21;;;;;;;33.20;27.95;;;;;;;16.14;47.09;98502.36;2246682;79;21185;-79
2021/05/01 12:23:22;;;;;;;31.73;28.20;;;;;;;16.07;46.99;98505.53;2246711;79;21126;-78
2021/05/01 12:26:25;;;;;;;31.40;27.20;;;;;;;16.06;47.42;98502.48;2246363;79;21854;-79
2021/05/01 12:29:26;;;;;;;38.80;30.50;;;;;;;15.87;47.36;98504.52;2247106;79;21110;-79
2021/05/01 12:32:27;;;;;;;36.83;29.92;;;;;;;15.67;47.82;98502.62;2247161;79;21237;-78
2021/05/01 12:35:28;;;;;;;44.18;32.38;;;;;;;15.68;48.39;98499.09;2246876;79;21071;-80
2021/05/01 12:38:29;;;;;;;39.65;29.75;;;;;;;15.46;48.19;98506.34;2246971;79;21130;-79
2021/05/01 12:41:31;;;;;;;36.95;28.40;;;;;;;15.09;48.83;98503.74;2246657;79;21252;-78
2021/05/01 12:44:32;;;;;;;35.05;29.40;;;;;;;15.01;49.36;98495.95;2246812;79;21106;-79
2021/05/01 12:47:33;;;;;;;43.23;30.57;;;;;;;14.99;49.75;98501.67;2247059;79;21337;-78
2021/05/01 12:50:36;;;;;;;41.63;30.57;;;;;;;14.84;49.96;98497.89;2246861;79;21511;-78
2021/05/01 12:53:37;;;;;;;46.73;31.10;;;;;;;14.76;50.15;98499.29;2246648;79;21126;-78
2021/05/01 12:56:38;;;;;;;45.25;32.35;;;;;;;14.78;50.49;98494.89;2246682;79;21079;-78
2021/05/01 12:59:41;;;;;;;41.40;29.80;;;;;;;14.91;50.29;98495.18;2246626;79;21122;-78
2021/05/01 13:02:45;;;;;;;41.68;29.75;;;;;;;15.05;50.26;98481.02;2246835;78;21130;-78
2021/05/01 13:05:47;;;;;;;42.55;31.35;;;;;;;15.13;50.01;98474.77;2246893;79;21075;-78
2021/05/01 13:08:48;;;;;;;40.12;30.17;;;;;;;15.23;49.93;98470.27;2246927;79;21354;-79
2021/05/01 13:11:49;;;;;;;45.88;30.72;;;;;;;15.27;50.15;98457.06;2246728;79;21131;-78
2021/05/01 13:14:50;;;;;;;41.77;30.20;;;;;;;15.41;50.06;98462.59;2246989;79;21090;-78
2021/05/01 13:17:51;;;;;;;41.90;30.77;;;;;;;15.51;50.03;98467.70;2246906;79;21466;-79
2021/05/01 13:20:52;;;;;;;39.83;30.15;;;;;;;15.58;49.91;98472.46;2247394;79;21118;-79
2021/05/01 13:23:53;;;;;;;38.80;30.43;;;;;;;15.48;49.66;98474.77;2246932;79;21111;-78
2021/05/01 13:26:55;;;;;;;41.73;31.12;;;;;;;15.39;49.91;98466.55;2246880;79;21364;-77
2021/05/01 13:29:56;;;;;;;40.78;32.33;;;;;;;15.42;49.92;98463.01;2246906;79;21115;-79
2021/05/01 13:32:57;;;;;;;55.15;41.15;;;;;;;15.50;50.13;98474.30;2246909;79;21107;-79
2021/05/01 13:35:58;;;;;;;46.95;33.98;;;;;;;15.66;49.79;98466.67;2247096;79;21098;-78
2021/05/01 13:38:59;;;;;;;37.70;28.87;;;;;;;15.74;49.27;98463.94;2247329;79;21226;-80
2021/05/01 13:42:00;;;;;;;36.05;29.27;;;;;;;15.75;49.02;98470.48;2246709;79;21292;-78
2021/05/01 13:45:01;;;;;;;42.98;31.80;;;;;;;15.66;49.45;98477.20;2246948;79;21075;-78
2021/05/01 13:48:02;;;;;;;35.55;28.77;;;;;;;15.45;49.69;98469.09;2245753;79;21091;-78
2021/05/01 13:51:03;;;;;;;37.28;29.63;;;;;;;15.25;50.29;98465.86;2246835;79;21114;-78
2021/05/01 13:54:04;;;;;;;44.42;33.85;;;;;;;15.22;50.71;98465.91;2246728;79;21099;-78